createdAt,value
2019-03-13T00:00:46.189Z,9.63
2019-03-13T00:03:19.125Z,9.23
2019-03-13T00:05:50.272Z,9.28
2019-03-13T00:08:21.672Z,9.80
2019-03-13T00:10:52.938Z,9.73
2019-03-13T00:13:24.244Z,9.98
2019-03-13T00:15:55.530Z,9.55
2019-03-13T00:18:26.863Z,10.48
2019-03-13T00:20:58.116Z,10.05
2019-03-13T00:23:29.419Z,9.80
2019-03-13T00:26:02.379Z,10.30
2019-03-13T00:28:33.711Z,11.15
2019-03-13T00:31:04.965Z,11.50
2019-03-13T00:33:36.302Z,12.65
2019-03-13T00:36:07.511Z,12.98
2019-03-13T00:38:39.046Z,14.47
2019-03-13T00:41:10.548Z,15.28
2019-03-13T00:43:41.814Z,15.63
2019-03-13T00:46:13.068Z,16.57
2019-03-13T00:48:44.297Z,17.98
2019-03-13T00:51:15.584Z,18.12
2019-03-13T00:53:48.805Z,17.75
2019-03-13T00:56:19.926Z,18.20
2019-03-13T00:58:51.294Z,117.47
2019-03-13T01:01:24.002Z,22.52
2019-03-13T01:04:00.752Z,28.52
2019-03-13T01:06:36.323Z,21.30
2019-03-13T01:09:07.543Z,23.65
2019-03-13T01:11:38.844Z,23.10
2019-03-13T01:14:10.017Z,24.40
2019-03-13T01:16:41.415Z,25.68
2019-03-13T01:19:12.569Z,27.22
2019-03-13T01:21:43.741Z,30.80
2019-03-13T01:24:15.197Z,30.32
2019-03-13T01:26:46.484Z,30.68
2019-03-13T01:29:17.728Z,31.15
2019-03-13T01:31:50.540Z,30.97
2019-03-13T01:34:35.228Z,31.05
2019-03-13T01:37:06.382Z,25.88
2019-03-13T01:39:37.646Z,23.80
2019-03-13T01:42:08.759Z,23.02
2019-03-13T01:44:40.853Z,21.62
2019-03-13T01:47:13.268Z,19.98
2019-03-13T01:49:44.596Z,20.15
2019-03-13T01:52:15.625Z,19.12
2019-03-13T01:54:46.963Z,18.05
2019-03-13T01:57:18.111Z,17.07
2019-03-13T01:59:49.283Z,17.48
2019-03-13T02:02:20.609Z,17.50
2019-03-13T02:04:51.935Z,16.90
2019-03-13T02:07:23.122Z,17.65
2019-03-13T02:09:54.262Z,18.10
2019-03-13T02:12:25.542Z,16.77
2019-03-13T02:14:56.883Z,17.30
2019-03-13T02:17:28.130Z,16.15
2019-03-13T02:19:59.317Z,17.80
2019-03-13T02:22:30.682Z,17.65
2019-03-13T02:25:01.988Z,18.17
2019-03-13T02:27:33.224Z,17.35
2019-03-13T02:30:11.723Z,17.25
2019-03-13T02:32:42.973Z,17.90
2019-03-13T02:35:14.279Z,17.25
2019-03-13T02:37:45.569Z,17.87
2019-03-13T02:40:16.918Z,18.35
2019-03-13T02:42:48.149Z,18.10
2019-03-13T02:45:19.328Z,18.98
2019-03-13T02:47:50.502Z,17.85
2019-03-13T02:50:21.741Z,19.65
2019-03-13T02:52:53.064Z,18.42
2019-03-13T02:55:24.180Z,19.40
2019-03-13T02:57:55.479Z,20.00
2019-03-13T03:00:44.336Z,19.07
2019-03-13T03:03:29.570Z,19.95
2019-03-13T03:06:01.709Z,19.60
2019-03-13T03:08:33.061Z,19.80
2019-03-13T03:11:04.481Z,19.80
2019-03-13T03:13:35.615Z,20.37
2019-03-13T03:16:07.923Z,20.80
2019-03-13T03:18:38.968Z,19.87
2019-03-13T03:21:10.208Z,18.73
2019-03-13T03:23:44.981Z,18.15
2019-03-13T03:26:14.283Z,19.37
2019-03-13T03:28:45.417Z,18.10
2019-03-13T03:31:16.647Z,18.42
2019-03-13T03:33:58.767Z,19.67
2019-03-13T03:36:30.404Z,19.15
2019-03-13T03:39:01.641Z,18.77
2019-03-13T03:41:34.813Z,18.12
2019-03-13T03:44:06.087Z,17.10
2019-03-13T03:46:37.195Z,17.32
2019-03-13T03:49:08.571Z,17.70
2019-03-13T03:51:39.875Z,18.48
2019-03-13T03:54:11.149Z,17.55
2019-03-13T03:56:42.434Z,16.80
2019-03-13T03:59:13.664Z,17.95
2019-03-13T04:01:44.974Z,18.02
2019-03-13T04:04:16.292Z,16.20
2019-03-13T04:06:47.530Z,16.52
2019-03-13T04:09:18.921Z,16.35
2019-03-13T04:11:50.242Z,15.83
2019-03-13T04:14:21.756Z,15.90
2019-03-13T04:16:53.007Z,15.43
2019-03-13T04:19:24.294Z,16.20
2019-03-13T04:21:55.451Z,16.80
2019-03-13T04:24:26.643Z,15.28
2019-03-13T04:26:57.882Z,16.77
2019-03-13T04:29:29.062Z,15.72
2019-03-13T04:32:00.996Z,16.05
2019-03-13T04:34:32.175Z,15.00
2019-03-13T04:37:03.559Z,15.28
2019-03-13T04:39:36.192Z,15.98
2019-03-13T04:42:08.196Z,16.42
2019-03-13T04:44:39.368Z,15.63
2019-03-13T04:47:10.597Z,15.85
2019-03-13T04:49:41.673Z,15.18
2019-03-13T04:52:13.095Z,14.80
2019-03-13T04:54:44.221Z,14.70
2019-03-13T04:57:16.528Z,14.68
2019-03-13T04:59:47.637Z,14.93
2019-03-13T05:02:19.289Z,15.38
2019-03-13T05:04:50.654Z,14.33
2019-03-13T05:07:21.906Z,13.85
2019-03-13T05:09:53.024Z,13.95
2019-03-13T05:12:27.551Z,13.83
2019-03-13T05:14:58.818Z,13.95
2019-03-13T05:17:30.067Z,13.43
2019-03-13T05:20:01.266Z,11.53
2019-03-13T05:22:32.598Z,12.13
2019-03-13T05:25:04.903Z,11.73
2019-03-13T05:27:36.265Z,12.33
2019-03-13T05:30:09.552Z,12.45
2019-03-13T05:32:40.726Z,11.83
2019-03-13T05:35:13.120Z,11.97
2019-03-13T05:37:44.316Z,11.57
2019-03-13T05:40:17.163Z,11.05
2019-03-13T05:42:48.998Z,11.35
2019-03-13T05:45:20.544Z,11.93
2019-03-13T05:47:52.805Z,12.05
2019-03-13T05:50:23.957Z,11.25
2019-03-13T05:53:03.198Z,11.30
2019-03-13T05:55:35.145Z,10.72
2019-03-13T05:58:06.372Z,10.45
2019-03-13T06:00:37.916Z,10.20
2019-03-13T06:03:09.457Z,11.20
2019-03-13T06:05:40.627Z,11.63
2019-03-13T06:08:11.936Z,11.35
2019-03-13T06:10:43.132Z,11.40
2019-03-13T06:13:14.491Z,11.18
2019-03-13T06:15:45.665Z,11.35
2019-03-13T06:18:17.026Z,11.53
2019-03-13T06:20:48.315Z,10.53
2019-03-13T06:23:19.593Z,10.68
2019-03-13T06:25:50.914Z,9.70
2019-03-13T06:28:22.423Z,10.63
2019-03-13T06:30:53.556Z,10.82
2019-03-13T06:33:24.859Z,10.32
2019-03-13T06:35:56.053Z,9.80
2019-03-13T06:38:27.190Z,9.90
2019-03-13T06:41:05.229Z,10.40
2019-03-13T06:43:38.526Z,10.10
2019-03-13T06:46:09.833Z,11.00
2019-03-13T06:48:41.200Z,12.25
2019-03-13T06:51:13.503Z,12.60
2019-03-13T06:53:45.899Z,13.25
2019-03-13T06:56:17.225Z,11.10
2019-03-13T06:58:57.617Z,11.83
2019-03-13T07:01:45.618Z,11.73
2019-03-13T07:04:21.581Z,11.53
2019-03-13T07:06:54.450Z,10.13
2019-03-13T07:09:39.390Z,11.48
2019-03-13T07:12:20.347Z,10.72
2019-03-13T07:14:56.384Z,10.93
2019-03-13T07:17:29.781Z,11.35
2019-03-13T07:20:15.254Z,10.70
2019-03-13T07:22:57.733Z,11.30
2019-03-13T07:25:47.786Z,11.85
2019-03-13T07:28:31.242Z,11.20
2019-03-13T07:31:16.966Z,9.93
2019-03-13T07:33:56.185Z,9.90
2019-03-13T07:36:50.061Z,9.98
2019-03-13T07:39:26.248Z,9.68
2019-03-13T07:42:02.257Z,9.58
2019-03-13T07:44:35.376Z,10.18
2019-03-13T07:47:24.906Z,133.12
2019-03-13T07:50:03.629Z,5.72
2019-03-13T07:52:54.592Z,6.40
2019-03-13T07:55:31.747Z,5.20
2019-03-13T07:58:07.450Z,5.28
2019-03-13T08:00:57.803Z,5.10
2019-03-13T08:03:32.372Z,5.67
2019-03-13T08:06:20.838Z,10.18
2019-03-13T08:09:02.066Z,5.70
2019-03-13T08:11:45.143Z,5.28
2019-03-13T08:14:34.507Z,4.83
2019-03-13T08:17:07.191Z,5.58
2019-03-13T08:19:56.589Z,6.15
2019-03-13T08:22:46.224Z,6.60
2019-03-13T08:25:31.275Z,6.83
2019-03-13T08:28:04.224Z,7.03
2019-03-13T08:30:55.846Z,5.33
2019-03-13T08:33:36.247Z,5.28
2019-03-13T08:36:11.707Z,5.30
2019-03-13T08:38:44.573Z,5.87
2019-03-13T08:41:33.799Z,9.15
2019-03-13T08:44:22.143Z,5.22
2019-03-13T08:46:58.150Z,4.50
2019-03-13T08:49:43.013Z,4.45
2019-03-13T08:52:21.729Z,4.55
2019-03-13T08:55:09.644Z,4.97
2019-03-13T08:57:54.410Z,4.22
2019-03-13T09:00:39.351Z,3.52
2019-03-13T09:03:12.058Z,4.05
2019-03-13T09:06:01.622Z,3.50
2019-03-13T09:08:43.987Z,4.35
2019-03-13T09:11:36.279Z,7.15
2019-03-13T09:14:12.361Z,3.85
2019-03-13T09:16:54.752Z,4.10
2019-03-13T09:19:36.439Z,4.03
2019-03-13T09:22:25.480Z,4.22
2019-03-13T09:25:11.094Z,3.85
2019-03-13T09:27:35.529Z,4.72
2019-03-13T09:30:15.454Z,4.58
2019-03-13T09:33:04.639Z,4.65
2019-03-13T09:38:25.030Z,4.10
2019-03-13T09:41:03.708Z,3.80
2019-03-13T09:43:42.482Z,4.47
2019-03-13T09:46:21.340Z,4.45
2019-03-13T09:48:59.803Z,4.40
2019-03-13T09:51:38.869Z,4.30
2019-03-13T09:54:32.083Z,4.83
2019-03-13T09:57:14.238Z,3.92
2019-03-13T10:00:07.761Z,4.47
2019-03-13T10:02:58.610Z,4.67
2019-03-13T10:05:31.447Z,4.10
2019-03-13T10:08:21.146Z,4.00
2019-03-13T10:11:09.014Z,4.83
2019-03-13T10:13:45.081Z,5.15
2019-03-13T10:16:21.320Z,4.80
2019-03-13T10:19:14.492Z,5.08
2019-03-13T10:21:50.164Z,5.17
2019-03-13T10:24:35.033Z,7.55
2019-03-13T10:27:21.129Z,4.58
2019-03-13T10:30:10.486Z,6.65
2019-03-13T10:32:55.751Z,3.65
2019-03-13T10:35:31.308Z,3.20
2019-03-13T10:38:13.731Z,3.40
2019-03-13T10:40:57.526Z,3.40
2019-03-13T10:43:30.421Z,3.40
2019-03-13T10:46:05.991Z,4.17
2019-03-13T10:48:45.160Z,3.70
2019-03-13T10:51:30.445Z,3.90
2019-03-13T10:54:06.250Z,4.10
2019-03-13T10:56:39.129Z,3.85
2019-03-13T10:59:11.846Z,4.22
2019-03-13T11:01:54.465Z,4.28
2019-03-13T11:04:43.384Z,3.87
2019-03-13T11:07:16.199Z,7.15
2019-03-13T11:09:49.031Z,4.20
2019-03-13T11:12:36.995Z,4.00
2019-03-13T11:15:26.445Z,3.45
2019-03-13T11:18:17.949Z,3.60
2019-03-13T11:21:02.406Z,3.58
2019-03-13T11:23:47.107Z,3.70
2019-03-13T11:26:19.782Z,4.00
2019-03-13T11:28:56.290Z,4.58
2019-03-13T11:31:38.234Z,4.35
2019-03-13T11:34:14.060Z,4.70
2019-03-13T11:37:03.105Z,3.55
2019-03-13T11:39:38.848Z,3.75
2019-03-13T11:42:12.718Z,4.22
2019-03-13T11:44:45.703Z,4.35
2019-03-13T11:47:21.603Z,5.22
2019-03-13T11:50:06.286Z,4.40
2019-03-13T11:52:55.517Z,6.00
2019-03-13T11:55:46.510Z,4.08
2019-03-13T11:58:22.145Z,4.40
2019-03-13T12:01:07.355Z,4.90
2019-03-13T12:03:57.475Z,4.10
2019-03-13T12:06:30.416Z,4.40
2019-03-13T12:09:15.706Z,4.58
2019-03-13T12:11:51.672Z,4.67
2019-03-13T12:14:30.656Z,3.92
2019-03-13T12:17:18.728Z,3.75
2019-03-13T12:19:54.169Z,3.35
2019-03-13T12:22:26.897Z,4.00
2019-03-13T12:25:03.096Z,3.85
2019-03-13T12:27:54.570Z,4.17
2019-03-13T12:30:33.851Z,4.10
2019-03-13T12:33:06.796Z,4.10
2019-03-13T12:35:39.696Z,4.40
2019-03-13T12:38:18.585Z,5.28
2019-03-13T12:40:57.623Z,4.83
2019-03-13T12:43:38.126Z,4.10
2019-03-13T12:46:13.736Z,3.98
2019-03-13T12:48:46.564Z,4.45
2019-03-13T12:51:31.487Z,3.90
2019-03-13T12:54:07.533Z,4.33
2019-03-13T12:56:41.272Z,4.47
2019-03-13T12:59:22.002Z,3.80
2019-03-13T13:01:54.966Z,3.90
2019-03-13T13:04:35.683Z,3.62
2019-03-13T13:07:11.810Z,3.67
2019-03-13T13:10:00.043Z,3.52
2019-03-13T13:12:41.879Z,3.90
2019-03-13T13:15:23.820Z,3.50
2019-03-13T13:18:05.465Z,3.85
2019-03-13T13:20:36.635Z,3.47
2019-03-13T13:23:07.973Z,3.80
2019-03-13T13:25:39.159Z,5.30
2019-03-13T13:28:10.398Z,4.55
2019-03-13T13:30:41.548Z,3.55
2019-03-13T13:33:13.645Z,4.08
2019-03-13T13:35:45.037Z,3.90
2019-03-13T13:38:16.297Z,3.40
2019-03-13T13:40:47.546Z,3.72
2019-03-13T13:43:18.895Z,4.03
2019-03-13T13:45:56.560Z,3.62
2019-03-13T13:48:27.632Z,3.95
2019-03-13T13:50:58.746Z,3.72
2019-03-13T13:53:30.198Z,4.87
2019-03-13T13:56:01.415Z,4.40
2019-03-13T13:58:32.633Z,4.20
2019-03-13T14:01:03.675Z,5.33
2019-03-13T14:03:34.919Z,6.47
2019-03-13T14:06:06.447Z,5.60
2019-03-13T14:08:39.067Z,5.78
2019-03-13T14:11:10.270Z,4.60
2019-03-13T14:13:41.852Z,4.85
2019-03-13T14:16:12.986Z,5.17
2019-03-13T14:18:44.070Z,6.45
2019-03-13T14:21:15.677Z,4.90
2019-03-13T14:23:47.837Z,3.95
2019-03-13T14:26:19.037Z,3.90
2019-03-13T14:28:50.278Z,4.22
2019-03-13T14:31:21.381Z,8.50
2019-03-13T14:33:52.573Z,3.42
2019-03-13T14:36:23.752Z,4.78
2019-03-13T14:38:54.883Z,4.83
2019-03-13T14:41:26.757Z,5.67
2019-03-13T14:43:58.169Z,4.92
2019-03-13T14:46:29.658Z,5.28
2019-03-13T14:49:01.078Z,5.22
2019-03-13T14:51:32.173Z,6.47
2019-03-13T14:54:03.656Z,5.92
2019-03-13T14:56:35.179Z,4.40
2019-03-13T14:59:06.264Z,5.12
2019-03-13T15:01:38.667Z,5.20
2019-03-13T15:04:10.181Z,6.45
2019-03-13T15:06:42.554Z,7.03
2019-03-13T15:09:13.845Z,6.62
2019-03-13T15:11:45.090Z,6.40
2019-03-13T15:14:18.261Z,5.67
2019-03-13T15:16:49.463Z,5.55
2019-03-13T15:19:20.644Z,5.97
2019-03-13T15:21:51.845Z,4.70
2019-03-13T15:24:22.934Z,6.47
2019-03-13T15:26:54.303Z,5.15
2019-03-13T15:29:25.403Z,5.50
2019-03-13T15:31:56.573Z,6.40
2019-03-13T15:34:27.914Z,5.95
2019-03-13T15:36:59.245Z,6.00
2019-03-13T15:39:30.539Z,5.53
2019-03-13T15:42:01.897Z,5.92
2019-03-13T15:44:33.516Z,6.10
2019-03-13T15:47:05.037Z,6.53
2019-03-13T15:49:36.284Z,5.90
2019-03-13T15:52:07.702Z,5.92
2019-03-13T15:54:38.850Z,6.33
2019-03-13T15:57:09.888Z,5.40
2019-03-13T15:59:40.979Z,5.97
2019-03-13T16:02:13.530Z,6.08
2019-03-13T16:04:44.651Z,7.20
2019-03-13T16:07:15.801Z,7.30
2019-03-13T16:09:47.039Z,7.90
2019-03-13T16:12:18.335Z,8.63
2019-03-13T16:14:51.786Z,10.48
2019-03-13T16:17:23.087Z,12.15
2019-03-13T16:19:54.351Z,13.55
2019-03-13T16:22:25.899Z,15.53
2019-03-13T16:24:57.259Z,16.90
2019-03-13T16:27:28.523Z,17.62
2019-03-13T16:29:59.890Z,20.72
2019-03-13T16:32:43.301Z,19.35
2019-03-13T16:35:06.393Z,20.72
2019-03-13T16:37:37.749Z,18.37
2019-03-13T16:40:15.106Z,15.05
2019-03-13T16:42:46.277Z,12.73
2019-03-13T16:45:19.692Z,12.15
2019-03-13T16:47:51.093Z,13.83
2019-03-13T16:50:25.231Z,11.80
2019-03-13T16:52:56.520Z,10.25
2019-03-13T16:55:28.245Z,9.65
2019-03-13T16:57:59.659Z,11.35
2019-03-13T17:00:33.126Z,11.00
2019-03-13T17:03:05.601Z,11.53
2019-03-13T17:05:37.826Z,15.15
2019-03-13T17:08:09.349Z,16.60
2019-03-13T17:10:40.593Z,16.80
2019-03-13T17:13:11.798Z,17.32
2019-03-13T17:15:43.166Z,23.70
2019-03-13T17:18:14.387Z,17.92
2019-03-13T17:20:45.836Z,17.37
2019-03-13T17:23:17.980Z,17.87
2019-03-13T17:25:51.058Z,18.50
2019-03-13T17:28:22.388Z,19.98
2019-03-13T17:30:53.756Z,20.95
2019-03-13T17:33:25.075Z,20.25
2019-03-13T17:35:56.595Z,22.00
2019-03-13T17:38:28.005Z,22.70
2019-03-13T17:40:59.211Z,22.52
2019-03-13T17:43:39.309Z,20.52
2019-03-13T17:46:03.697Z,18.70
2019-03-13T17:48:36.837Z,17.75
2019-03-13T17:51:08.149Z,16.52
2019-03-13T17:53:39.522Z,16.90
2019-03-13T17:56:10.868Z,17.73
2019-03-13T17:58:42.124Z,18.45
2019-03-13T18:01:13.496Z,20.02
2019-03-13T18:03:45.019Z,20.23
2019-03-13T18:06:16.246Z,20.00
2019-03-13T18:08:47.566Z,21.35
2019-03-13T18:11:18.709Z,23.65
2019-03-13T18:13:49.864Z,25.52
2019-03-13T18:16:21.225Z,21.27
2019-03-13T18:18:52.660Z,21.07
2019-03-13T18:21:24.005Z,20.48
2019-03-13T18:23:55.422Z,19.17
2019-03-13T18:26:26.946Z,19.37
2019-03-13T18:28:58.307Z,19.17
2019-03-13T18:31:29.483Z,18.45
2019-03-13T18:34:02.779Z,17.60
2019-03-13T18:36:46.823Z,16.42
2019-03-13T18:39:18.242Z,16.55
2019-03-13T18:41:49.496Z,16.35
2019-03-13T18:44:21.489Z,16.55
2019-03-13T18:47:02.946Z,17.23
2019-03-13T18:49:40.933Z,19.17
2019-03-13T18:52:14.119Z,19.70
2019-03-13T18:54:52.949Z,18.32
2019-03-13T18:57:28.525Z,19.00
2019-03-13T19:00:01.963Z,20.57
2019-03-13T19:02:35.088Z,19.95
2019-03-13T19:05:10.170Z,20.65
2019-03-13T19:07:44.638Z,19.95
2019-03-13T19:10:21.031Z,20.60
2019-03-13T19:12:52.655Z,21.07
2019-03-13T19:15:28.660Z,20.30
2019-03-13T19:18:01.290Z,20.17
2019-03-13T19:20:33.285Z,20.40
2019-03-13T19:23:06.992Z,19.17
2019-03-13T19:25:39.819Z,20.52
2019-03-13T19:28:14.412Z,23.18
2019-03-13T19:30:47.329Z,27.07
2019-03-13T19:33:19.012Z,28.15
2019-03-13T19:35:50.607Z,25.48
2019-03-13T19:38:21.968Z,24.67
2019-03-13T19:40:54.535Z,24.02
2019-03-13T19:43:28.236Z,23.25
2019-03-13T19:45:59.987Z,25.23
2019-03-13T19:48:31.938Z,24.95
2019-03-13T19:51:03.844Z,23.50
2019-03-13T19:53:35.261Z,24.50
2019-03-13T19:56:07.908Z,25.43
2019-03-13T19:58:39.185Z,25.90
2019-03-13T20:01:10.959Z,32.25
2019-03-13T20:03:54.354Z,29.15
2019-03-13T20:06:15.432Z,28.62
2019-03-13T20:08:51.088Z,31.42
2019-03-13T20:11:23.101Z,31.90
2019-03-13T20:13:58.747Z,31.23
2019-03-13T20:16:32.089Z,32.10
2019-03-13T20:19:05.582Z,30.10
2019-03-13T20:21:37.175Z,29.77
2019-03-13T20:24:08.644Z,30.90
2019-03-13T20:26:40.264Z,31.95
2019-03-13T20:29:11.415Z,30.95
2019-03-13T20:31:42.740Z,32.10
2019-03-13T20:34:13.885Z,34.50
2019-03-13T20:36:45.677Z,34.30
2019-03-13T20:39:17.301Z,36.75
2019-03-13T20:41:48.788Z,38.83
2019-03-13T20:44:20.113Z,37.65
2019-03-13T20:46:51.622Z,39.08
2019-03-13T20:49:22.981Z,40.98
2019-03-13T20:51:54.320Z,39.80
2019-03-13T20:54:26.965Z,37.93
2019-03-13T20:56:59.646Z,41.13
2019-03-13T20:59:32.554Z,43.73
2019-03-13T21:02:11.612Z,41.75
2019-03-13T21:04:55.364Z,43.13
2019-03-13T21:07:27.886Z,40.50
2019-03-13T21:10:17.888Z,38.95
2019-03-13T21:12:59.309Z,38.48
2019-03-13T21:15:30.625Z,36.77
2019-03-13T21:18:02.013Z,39.65
2019-03-13T21:20:33.718Z,39.55
2019-03-13T21:23:07.473Z,37.75
2019-03-13T21:25:41.400Z,40.00
2019-03-13T21:28:13.211Z,42.05
2019-03-13T21:30:45.250Z,41.50
2019-03-13T21:33:18.234Z,41.80
2019-03-13T21:35:50.647Z,41.88
2019-03-13T21:38:29.805Z,41.28
2019-03-13T21:41:10.811Z,37.95
2019-03-13T21:43:45.869Z,38.30
2019-03-13T21:46:20.248Z,40.05
2019-03-13T21:48:51.531Z,40.98
2019-03-13T21:51:23.188Z,42.60
2019-03-13T21:53:54.558Z,42.98
2019-03-13T21:56:25.908Z,42.95
2019-03-13T21:58:57.500Z,42.88
2019-03-13T22:01:28.658Z,41.92
2019-03-13T22:03:59.987Z,41.98
2019-03-13T22:06:31.735Z,41.70
2019-03-13T22:09:04.763Z,41.95
2019-03-13T22:11:36.622Z,40.43
2019-03-13T22:14:08.053Z,41.08
2019-03-13T22:16:39.368Z,38.70
2019-03-13T22:19:10.965Z,41.18
2019-03-13T22:21:42.190Z,40.65
2019-03-13T22:24:13.511Z,39.75
2019-03-13T22:26:45.003Z,42.30
2019-03-13T22:29:16.419Z,40.33
2019-03-13T22:31:47.942Z,40.90
2019-03-13T22:34:19.196Z,41.68
2019-03-13T22:36:50.565Z,41.68
2019-03-13T22:39:21.772Z,41.55
2019-03-13T22:41:53.046Z,40.73
2019-03-13T22:44:24.487Z,42.48
2019-03-13T22:46:55.860Z,40.43
2019-03-13T22:49:27.101Z,38.85
2019-03-13T22:51:58.347Z,39.78
2019-03-13T22:54:29.691Z,40.20
2019-03-13T22:57:00.897Z,40.23
2019-03-13T22:59:33.359Z,39.95
2019-03-13T23:02:05.030Z,40.73
2019-03-13T23:04:36.485Z,41.08
2019-03-13T23:07:07.654Z,41.48
2019-03-13T23:09:38.944Z,41.08
2019-03-13T23:12:10.346Z,42.00
2019-03-13T23:14:41.709Z,41.85
2019-03-13T23:17:12.966Z,42.98
2019-03-13T23:19:44.199Z,39.63
2019-03-13T23:22:17.009Z,39.58
2019-03-13T23:24:48.130Z,41.73
2019-03-13T23:27:19.332Z,42.88
2019-03-13T23:29:50.766Z,44.00
2019-03-13T23:32:22.074Z,43.52
2019-03-13T23:34:53.310Z,44.27
2019-03-13T23:37:24.469Z,47.25
2019-03-13T23:39:57.728Z,43.08
2019-03-13T23:42:28.787Z,45.70
2019-03-13T23:45:00.049Z,42.73
2019-03-13T23:47:31.138Z,44.25
2019-03-13T23:50:02.374Z,41.83
2019-03-13T23:52:33.816Z,41.40
2019-03-13T23:55:05.751Z,42.13
2019-03-13T23:57:36.972Z,42.17
